createdAt,value
2023-04-17T00:04:02.697Z,51.57
2023-04-17T00:09:04.981Z,51.24
2023-04-17T00:14:06.802Z,51.07
2023-04-17T00:19:09.020Z,51.35
2023-04-17T00:24:13.166Z,51.32
2023-04-17T00:29:15.257Z,51.19
2023-04-17T00:34:17.694Z,51.18
2023-04-17T00:39:19.944Z,51.05
2023-04-17T00:44:22.026Z,51.04
2023-04-17T00:49:24.725Z,51.14
2023-04-17T00:54:26.750Z,50.97
2023-04-17T00:59:28.738Z,51.06
2023-04-17T01:04:31.243Z,51.18
2023-04-17T01:09:35.422Z,50.98
2023-04-17T01:14:37.509Z,50.91
2023-04-17T01:20:35.537Z,51.04
2023-04-17T01:25:37.743Z,51.05
2023-04-17T01:30:39.826Z,51.30
2023-04-17T01:35:43.806Z,51.33
2023-04-17T01:40:46.369Z,51.42
2023-04-17T01:45:48.332Z,51.26
2023-04-17T01:50:53.237Z,51.36
2023-04-17T01:56:04.071Z,51.42
2023-04-17T02:01:08.151Z,51.46
2023-04-17T02:06:10.680Z,51.16
2023-04-17T02:11:15.366Z,50.71
2023-04-17T02:16:21.911Z,51.26
2023-04-17T02:21:24.005Z,51.39
2023-04-17T02:26:26.174Z,51.37
2023-04-17T02:31:28.193Z,51.37
2023-04-17T02:36:30.781Z,51.34
2023-04-17T02:41:33.600Z,51.45
2023-04-17T02:51:01.957Z,52.16
2023-04-17T02:56:05.707Z,51.74
2023-04-17T03:01:09.465Z,51.61
2023-04-17T03:06:16.369Z,50.82
2023-04-17T03:11:18.442Z,50.80
2023-04-17T03:16:20.568Z,50.14
2023-04-17T03:21:26.795Z,50.22
2023-04-17T03:26:28.859Z,50.16
2023-04-17T03:31:33.380Z,49.28
2023-04-17T03:36:36.453Z,48.99
2023-04-17T03:41:47.180Z,48.83
2023-04-17T03:46:49.310Z,48.67
2023-04-17T03:51:52.168Z,48.74
2023-04-17T03:56:59.233Z,48.65
2023-04-17T04:07:32.231Z,48.64
2023-04-17T04:12:34.371Z,48.33
2023-04-17T04:17:37.238Z,48.77
2023-04-17T04:22:44.860Z,48.71
2023-04-17T04:27:49.934Z,48.70
2023-04-17T04:33:01.294Z,48.02
2023-04-17T04:38:05.187Z,48.95
2023-04-17T04:43:11.224Z,48.08
2023-04-17T04:48:17.507Z,47.92
2023-04-17T04:53:20.623Z,48.02
2023-04-17T04:58:31.143Z,48.65
2023-04-17T05:03:37.473Z,48.20
2023-04-17T05:08:41.724Z,47.66
2023-04-17T05:13:48.866Z,47.64
2023-04-17T05:18:57.173Z,47.34
2023-04-17T05:24:25.228Z,47.47
2023-04-17T05:29:27.522Z,47.88
2023-04-17T05:34:30.931Z,47.80
2023-04-17T05:39:34.417Z,47.15
2023-04-17T05:44:37.464Z,47.07
2023-04-17T05:49:39.667Z,46.32
2023-04-17T05:54:45.702Z,46.20
2023-04-17T05:59:49.293Z,46.27
2023-04-17T06:04:52.011Z,46.37
2023-04-17T06:09:54.535Z,46.47
2023-04-17T06:14:56.978Z,45.00
2023-04-17T06:19:59.387Z,47.05
2023-04-17T06:25:01.813Z,46.35
2023-04-17T06:30:04.626Z,46.32
2023-04-17T06:35:11.586Z,45.35
2023-04-17T06:40:22.440Z,45.47
2023-04-17T06:45:26.175Z,45.31
2023-04-17T06:50:28.935Z,45.14
2023-04-17T06:55:31.090Z,44.82
2023-04-17T07:00:34.519Z,43.93
2023-04-17T07:05:36.583Z,43.84
2023-04-17T07:10:44.529Z,42.87
2023-04-17T07:15:54.756Z,41.10
2023-04-17T07:20:57.192Z,42.51
2023-04-17T07:25:59.098Z,40.04
2023-04-17T07:31:02.419Z,41.76
2023-04-17T07:36:06.060Z,41.70
2023-04-17T07:41:08.532Z,42.16
2023-04-17T07:46:10.648Z,42.35
2023-04-17T07:51:12.802Z,42.65
2023-04-17T07:56:14.955Z,42.30
2023-04-17T08:01:23.938Z,42.92
2023-04-17T08:06:26.626Z,43.08
2023-04-17T08:11:29.368Z,43.58
2023-04-17T08:16:32.104Z,43.93
2023-04-17T08:21:34.225Z,43.74
2023-04-17T08:26:36.179Z,43.54
2023-04-17T08:31:39.956Z,44.55
2023-04-17T08:36:42.837Z,44.34
2023-04-17T08:41:52.036Z,45.55
2023-04-17T08:46:58.486Z,47.38
2023-04-17T08:52:04.608Z,47.36
2023-04-17T08:57:06.626Z,46.89
2023-04-17T09:02:09.737Z,47.59
2023-04-17T09:07:53.589Z,47.80
2023-04-17T09:13:03.690Z,48.59
2023-04-17T09:18:27.266Z,53.70
2023-04-17T09:23:31.805Z,52.92
2023-04-17T09:28:41.668Z,53.24
2023-04-17T09:34:04.329Z,54.40
2023-04-17T09:39:20.840Z,54.89
2023-04-17T09:44:33.424Z,54.12
2023-04-17T09:49:40.099Z,53.44
2023-04-17T09:54:43.443Z,54.12
2023-04-17T09:59:53.627Z,55.25
2023-04-17T10:04:57.879Z,56.68
2023-04-17T10:10:01.240Z,57.93
2023-04-17T10:15:06.113Z,59.10
2023-04-17T10:20:20.302Z,62.51
2023-04-17T10:25:27.581Z,61.57
2023-04-17T10:30:54.502Z,61.89
2023-04-17T10:35:57.206Z,61.99
2023-04-17T10:41:02.745Z,61.48
2023-04-17T10:46:13.055Z,62.97
2023-04-17T10:51:21.223Z,61.52
2023-04-17T10:56:27.674Z,61.77
2023-04-17T11:01:50.170Z,60.66
2023-04-17T11:06:54.039Z,59.55
2023-04-17T11:12:02.064Z,60.70
2023-04-17T11:17:29.414Z,61.22
2023-04-17T11:22:37.324Z,62.03
2023-04-17T11:27:39.633Z,60.93
2023-04-17T11:32:52.586Z,60.19
2023-04-17T11:38:29.593Z,59.08
2023-04-17T11:43:36.807Z,58.10
2023-04-17T11:48:38.908Z,57.60
2023-04-17T11:53:46.668Z,57.38
2023-04-17T11:58:57.126Z,56.59
2023-04-17T12:03:59.797Z,56.17
2023-04-17T12:09:06.395Z,55.60
2023-04-17T12:14:12.261Z,55.46
2023-04-17T12:19:16.827Z,55.09
2023-04-17T12:24:24.268Z,55.67
2023-04-17T12:29:42.802Z,55.72
2023-04-17T12:34:45.736Z,55.18
2023-04-17T12:39:48.163Z,55.16
2023-04-17T12:44:54.309Z,54.82
2023-04-17T12:49:56.468Z,55.10
2023-04-17T12:55:00.068Z,55.27
2023-04-17T13:00:05.247Z,55.07
2023-04-17T13:05:07.571Z,54.91
2023-04-17T13:18:50.244Z,55.64
2023-04-17T13:32:29.535Z,55.29
2023-04-17T13:44:28.240Z,55.21
2023-04-17T13:58:16.646Z,56.30
2023-04-17T14:03:58.706Z,56.34
2023-04-17T14:09:50.517Z,56.13
2023-04-17T14:28:35.559Z,56.47
2023-04-17T14:41:12.203Z,56.06
2023-04-17T14:47:30.019Z,56.13
2023-04-17T15:13:40.180Z,57.51
2023-04-17T15:26:45.089Z,57.19
2023-04-17T16:38:43.110Z,58.78
2023-04-17T16:50:34.644Z,59.00
2023-04-17T16:55:36.994Z,59.41
2023-04-17T17:00:39.455Z,59.02
2023-04-17T17:05:41.789Z,59.73
2023-04-17T17:10:43.999Z,59.39
2023-04-17T17:15:46.199Z,60.39
2023-04-17T17:20:51.053Z,61.28
2023-04-17T17:25:53.233Z,59.76
2023-04-17T17:31:05.497Z,61.13
2023-04-17T17:36:08.998Z,60.77
2023-04-17T17:41:11.273Z,60.36
2023-04-17T17:46:13.354Z,60.76
2023-04-17T17:51:15.734Z,61.19
2023-04-17T17:56:17.990Z,61.13
2023-04-17T18:01:23.526Z,61.28
2023-04-17T18:06:28.004Z,61.66
2023-04-17T18:11:30.235Z,61.50
2023-04-17T18:16:33.729Z,61.71
2023-04-17T18:21:35.872Z,61.64
2023-04-17T18:26:37.819Z,62.79
2023-04-17T18:31:40.227Z,61.62
2023-04-17T18:36:42.193Z,61.51
2023-04-17T18:41:44.415Z,61.42
2023-04-17T18:46:46.475Z,61.41
2023-04-17T18:51:49.104Z,61.27
2023-04-17T18:56:51.886Z,61.92
2023-04-17T19:01:54.696Z,62.08
2023-04-17T19:06:58.496Z,62.40
2023-04-17T19:12:00.750Z,62.28
2023-04-17T19:17:02.759Z,62.22
2023-04-17T19:22:04.857Z,62.35
2023-04-17T19:27:07.920Z,62.45
2023-04-17T19:32:10.974Z,62.72
2023-04-17T19:37:13.143Z,62.83
2023-04-17T19:42:15.456Z,62.86
2023-04-17T19:47:20.475Z,62.59
2023-04-17T19:52:24.090Z,62.80
2023-04-17T19:57:26.348Z,63.29
2023-04-17T20:02:30.952Z,62.92
2023-04-17T20:07:33.581Z,62.92
2023-04-17T20:12:36.173Z,62.74
2023-04-17T20:17:38.608Z,62.23
2023-04-17T20:22:40.925Z,62.44
2023-04-17T20:27:42.932Z,63.06
2023-04-17T20:32:46.268Z,62.67
2023-04-17T20:37:48.463Z,62.36
2023-04-17T20:42:50.392Z,63.29
2023-04-17T20:47:56.929Z,62.67
2023-04-17T20:52:59.480Z,62.84
2023-04-17T20:58:01.440Z,63.98
2023-04-17T21:03:04.417Z,62.62
2023-04-17T21:08:06.970Z,62.88
2023-04-17T21:13:09.199Z,62.87
2023-04-17T21:18:11.571Z,62.95
2023-04-17T21:23:14.848Z,63.35
2023-04-17T21:28:17.072Z,62.79
2023-04-17T21:33:19.421Z,63.23
2023-04-17T21:38:21.718Z,63.06
2023-04-17T21:43:24.452Z,62.74
2023-04-17T21:48:27.988Z,62.98
2023-04-17T21:53:30.809Z,62.52
2023-04-17T21:59:08.690Z,62.89
2023-04-17T22:04:11.094Z,62.56
2023-04-17T22:09:13.579Z,62.66
2023-04-17T22:14:16.854Z,62.85
2023-04-17T22:19:19.069Z,62.70
2023-04-17T22:24:21.135Z,64.19
2023-04-17T22:29:23.287Z,63.56
2023-04-17T22:34:25.629Z,63.48
2023-04-17T22:39:27.787Z,63.29
2023-04-17T22:44:29.642Z,64.71
2023-04-17T22:49:32.591Z,63.57
2023-04-17T22:54:34.853Z,63.57
2023-04-17T22:59:37.263Z,63.70
2023-04-17T23:04:39.559Z,63.68
2023-04-17T23:09:41.938Z,63.53
2023-04-17T23:14:45.971Z,63.97
2023-04-17T23:19:48.195Z,63.60
2023-04-17T23:24:50.267Z,63.96
2023-04-17T23:29:52.450Z,63.85
2023-04-17T23:34:54.501Z,65.92
2023-04-17T23:39:56.676Z,64.27
2023-04-17T23:44:58.732Z,65.68
2023-04-17T23:50:00.882Z,64.10
2023-04-17T23:55:03.926Z,63.96
